Time;durP1;ratioP1;P1;durP2;ratioP2;P2;SDS_P1;SDS_P2;PMS_P1;PMS_P2;Temp;Humidity;BMP_temperature;BMP_pressure;BME280_temperature;BME280_humidity;BME280_pressure;Samples;Min_cycle;Max_cycle;Signal;HPM_P1;HPM_P2
2022/06/25 00:01:47;;;;;;;;;;;;;;;-149.78;100.00;50146.81;5082914;28;19927;-69
2022/06/25 00:06:58;;;;;;;;;;;;;;;-149.78;100.00;50119.41;5095388;28;19931;-69
2022/06/25 00:09:23;;;;;;;;;;;;;;;-149.78;100.00;50148.75;5095721;28;20418;-69
2022/06/25 00:14:33;;;;;;;;;;;;;;;-149.78;100.00;50125.28;5095848;28;19976;-70
2022/06/25 00:16:58;;;;;;;;;;;;;;;-149.78;100.00;50107.69;5077625;28;19927;-69
2022/06/25 00:19:23;;;;;;;;;;;;;;;-149.78;100.00;50166.34;5097364;28;19928;-70
2022/06/25 00:21:49;;;;;;;;;;;;;;;-149.78;100.00;50150.72;5098523;28;20005;-70
2022/06/25 00:24:16;;;;;;;;;;;;;;;-149.78;100.00;50166.34;5095678;28;19988;-69
2022/06/25 00:26:42;;;;;;;;;;;;;;;-149.78;100.00;50115.50;5095665;28;19966;-69
2022/06/25 00:29:08;;;;;;;;;;;;;;;-149.78;100.00;50146.81;5094978;28;20010;-69
2022/06/25 00:31:33;;;;;;;;;;;;;;;-149.78;100.00;50148.75;5096520;28;19919;-69
2022/06/25 00:33:59;;;;;;;;;;;;;;;-149.78;100.00;50137.03;5094211;28;19923;-69
2022/06/25 00:36:24;;;;;;;;;;;;;;;-149.78;100.00;50150.72;5096293;28;19928;-69
2022/06/25 00:38:49;;;;;;;;;;;;;;;-149.78;100.00;50170.25;5096157;28;20528;-69
2022/06/25 00:41:15;;;;;;;;;;;;;;;-149.78;100.00;50170.25;5096908;28;19927;-69
2022/06/25 00:43:41;;;;;;;;;;;;;;;-149.78;100.00;50150.72;5096448;28;20700;-70
2022/06/25 00:46:06;;;;;;;;;;;;;;;-149.78;100.00;50138.97;5079288;28;19924;-70
2022/06/25 00:48:32;;;;;;;;;;;;;;;-149.78;100.00;50146.81;5095382;28;19916;-69
2022/06/25 00:51:01;;;;;;;;;;;;;;;-149.78;100.00;50140.94;5096910;28;19973;-69
2022/06/25 00:53:32;;;;;;;;;;;;;;;-149.78;100.00;50166.34;5096808;28;19992;-69
2022/06/25 00:55:59;;;;;;;;;;;;;;;-149.78;100.00;50189.81;5095519;28;19931;-69
2022/06/25 00:58:26;;;;;;;;;;;;;;;-149.78;100.00;50170.25;5095805;28;20015;-69
2022/06/25 01:00:52;;;;;;;;;;;;;;;-149.78;100.00;50154.63;5096588;28;19970;-69
2022/06/25 01:03:17;;;;;;;;;;;;;;;-149.78;100.00;50127.25;5098710;28;20355;-69
2022/06/25 01:05:44;;;;;;;;;;;;;;;-149.78;100.00;50154.63;5105817;28;19969;-69
2022/06/25 01:08:09;;;;;;;;;;;;;;;-149.78;100.00;50178.09;5102501;28;19927;-69
2022/06/25 01:10:34;;;;;;;;;;;;;;;-149.78;100.00;50160.50;5103710;28;19949;-69
2022/06/25 01:13:00;;;;;;;;;;;;;;;-149.78;100.00;50150.72;5103918;28;19950;-69
2022/06/25 01:15:27;;;;;;;;;;;;;;;-149.78;100.00;50148.75;5103321;28;19916;-69
2022/06/25 01:17:52;;;;;;;;;;;;;;;-149.78;100.00;50166.34;5100519;28;19916;-69
2022/06/25 01:20:19;;;;;;;;;;;;;;;-149.78;100.00;50187.88;5104810;28;19984;-70
2022/06/25 01:22:44;;;;;;;;;;;;;;;-149.78;100.00;50170.25;5101358;28;20493;-69
2022/06/25 01:25:11;;;;;;;;;;;;;;;-149.78;100.00;50178.09;5102387;28;20063;-69
2022/06/25 01:27:36;;;;;;;;;;;;;;;-149.78;100.00;50154.63;5099853;28;19947;-69
2022/06/25 01:30:03;;;;;;;;;;;;;;;-149.78;100.00;50168.31;5097746;28;20434;-69
2022/06/25 01:32:29;;;;;;;;;;;;;;;-149.78;100.00;50182.00;5102372;28;20410;-69
2022/06/25 01:34:54;;;;;;;;;;;;;;;-149.78;100.00;50176.13;5102476;28;20014;-69
2022/06/25 01:37:21;;;;;;;;;;;;;;;-149.78;100.00;50158.53;5094967;28;19928;-69
2022/06/25 01:39:46;;;;;;;;;;;;;;;-149.78;100.00;50150.72;5097394;28;20595;-69
2022/06/25 01:42:58;;;;;;;;;;;;;;;-149.78;100.00;50174.19;5104329;28;19923;-69
2022/06/25 01:44:57;;;;;;;;;;;;;;;-149.78;100.00;50182.00;5098456;28;20294;-69
2022/06/25 01:47:23;;;;;;;;;;;;;;;-149.78;100.00;50152.66;5098086;28;20309;-69
2022/06/25 01:49:49;;;;;;;;;;;;;;;-149.78;100.00;50174.19;5100656;28;19916;-69
2022/06/25 01:52:14;;;;;;;;;;;;;;;-149.78;100.00;50158.53;5098684;28;20186;-69
2022/06/25 01:54:40;;;;;;;;;;;;;;;-149.78;100.00;50170.25;5098660;28;19928;-69
2022/06/25 01:57:05;;;;;;;;;;;;;;;-149.78;100.00;50197.66;5099640;28;20108;-69
2022/06/25 01:59:30;;;;;;;;;;;;;;;-149.78;100.00;50199.59;5096397;28;20371;-69
2022/06/25 02:01:56;;;;;;;;;;;;;;;-149.78;100.00;50170.25;5098853;28;19924;-69
2022/06/25 02:04:21;;;;;;;;;;;;;;;-149.78;100.00;50150.72;5098867;28;19928;-69
2022/06/25 02:06:47;;;;;;;;;;;;;;;-149.78;100.00;50215.25;5100093;28;19967;-69
2022/06/25 02:09:12;;;;;;;;;;;;;;;-149.78;100.00;50185.91;5098366;28;20445;-69
2022/06/25 02:11:37;;;;;;;;;;;;;;;-149.78;100.00;50225.03;5101511;28;19951;-69
2022/06/25 02:14:03;;;;;;;;;;;;;;;-149.78;100.00;50182.00;5102504;28;19927;-69
2022/06/25 02:16:28;;;;;;;;;;;;;;;-149.78;100.00;50207.44;5099591;28;19976;-69
2022/06/25 02:18:54;;;;;;;;;;;;;;;-149.78;100.00;50203.50;5101374;28;20294;-69
2022/06/25 02:21:19;;;;;;;;;;;;;;;-149.78;100.00;50170.25;5099193;28;19963;-69
2022/06/25 02:23:45;;;;;;;;;;;;;;;-149.78;100.00;50197.66;5103258;28;19928;-69
2022/06/25 02:26:10;;;;;;;;;;;;;;;-149.78;100.00;50146.81;5099080;28;20488;-70
2022/06/25 02:28:35;;;;;;;;;;;;;;;-149.78;100.00;50197.66;5100356;28;19923;-70
2022/06/25 02:31:01;;;;;;;;;;;;;;;-149.78;100.00;50203.50;5101395;28;20007;-70
2022/06/25 02:33:27;;;;;;;;;;;;;;;-149.78;100.00;50176.13;5102087;28;19927;-70
2022/06/25 02:35:53;;;;;;;;;;;;;;;-149.78;100.00;50221.13;5100035;28;19977;-70
2022/06/25 02:38:19;;;;;;;;;;;;;;;-149.78;100.00;50197.66;5103860;28;20019;-70
2022/06/25 02:40:46;;;;;;;;;;;;;;;-149.78;100.00;50221.13;5100795;28;20006;-70
2022/06/25 02:43:11;;;;;;;;;;;;;;;-149.78;100.00;50174.19;5101033;28;19932;-70
2022/06/25 02:45:37;;;;;;;;;;;;;;;-149.78;100.00;50201.56;5099226;28;19927;-70
2022/06/25 02:48:03;;;;;;;;;;;;;;;-149.78;100.00;50170.25;5100859;28;19920;-70
2022/06/25 02:50:29;;;;;;;;;;;;;;;-149.78;100.00;50197.66;5097999;28;20022;-70
2022/06/25 02:52:54;;;;;;;;;;;;;;;-149.78;100.00;50217.19;5100897;28;20570;-70
2022/06/25 02:58:54;;;;;;;;;;;;;;;-149.78;100.00;50205.47;5100959;28;19935;-70
2022/06/25 03:00:49;;;;;;;;;;;;;;;-149.78;100.00;50189.81;5102182;28;19923;-70
2022/06/25 03:03:15;;;;;;;;;;;;;;;-149.78;100.00;50217.19;5101869;28;19943;-70
2022/06/25 03:05:40;;;;;;;;;;;;;;;-149.78;100.00;50213.28;5100462;28;20425;-70
2022/06/25 03:08:05;;;;;;;;;;;;;;;-149.78;100.00;50182.00;5102512;28;19928;-70
2022/06/25 03:10:31;;;;;;;;;;;;;;;-149.78;100.00;50225.03;5099965;28;20630;-69
2022/06/25 03:12:56;;;;;;;;;;;;;;;-149.78;100.00;50185.91;5102180;28;19967;-69
2022/06/25 03:15:21;;;;;;;;;;;;;;;-149.78;100.00;50182.00;5099135;28;20043;-70
2022/06/25 03:17:47;;;;;;;;;;;;;;;-149.78;100.00;50225.03;5099357;28;20383;-70
2022/06/25 03:20:12;;;;;;;;;;;;;;;-149.78;100.00;50209.38;5101209;28;19931;-70
2022/06/25 03:22:38;;;;;;;;;;;;;;;-149.78;100.00;50258.28;5100105;28;20431;-69
2022/06/25 03:25:04;;;;;;;;;;;;;;;-149.78;100.00;50209.38;5100456;28;19924;-70
2022/06/25 03:27:29;;;;;;;;;;;;;;;-149.78;100.00;50232.84;5101131;28;20026;-70
2022/06/25 03:29:54;;;;;;;;;;;;;;;-149.78;100.00;50211.34;5101645;28;19927;-70
2022/06/25 03:32:20;;;;;;;;;;;;;;;-149.78;100.00;50225.03;5099448;28;19931;-70
2022/06/25 03:34:46;;;;;;;;;;;;;;;-149.78;100.00;50185.91;5101103;28;19923;-69
2022/06/25 03:37:11;;;;;;;;;;;;;;;-149.78;100.00;50209.38;5098934;28;19927;-70
2022/06/25 03:39:36;;;;;;;;;;;;;;;-149.78;100.00;50221.13;5103261;28;19923;-70
2022/06/25 03:42:02;;;;;;;;;;;;;;;-149.78;100.00;50225.03;5100593;28;20371;-70
2022/06/25 03:44:28;;;;;;;;;;;;;;;-149.78;100.00;50213.28;5101479;28;19928;-70
2022/06/25 03:46:53;;;;;;;;;;;;;;;-149.78;100.00;50203.50;5096922;28;19916;-70
2022/06/25 03:49:19;;;;;;;;;;;;;;;-149.78;100.00;50232.84;5097185;28;20004;-70
2022/06/25 03:51:44;;;;;;;;;;;;;;;-149.78;100.00;50236.75;5099103;28;19934;-70
2022/06/25 03:54:09;;;;;;;;;;;;;;;-149.78;100.00;50225.03;5100068;28;19935;-70
2022/06/25 03:56:35;;;;;;;;;;;;;;;-149.78;100.00;50238.72;5101760;28;19920;-70
2022/06/25 03:59:00;;;;;;;;;;;;;;;-149.78;100.00;50226.97;5088413;28;20408;-69
2022/06/25 04:01:27;;;;;;;;;;;;;;;-149.78;100.00;50230.88;5093577;28;19924;-70
2022/06/25 04:03:53;;;;;;;;;;;;;;;-149.78;100.00;50203.50;5098652;28;19981;-70
2022/06/25 04:06:18;;;;;;;;;;;;;;;-149.78;100.00;50217.19;5096657;28;20032;-70
2022/06/25 04:08:44;;;;;;;;;;;;;;;-149.78;100.00;50178.09;5099170;28;20476;-70
2022/06/25 04:11:10;;;;;;;;;;;;;;;-149.78;100.00;50256.31;5099142;28;19916;-70
2022/06/25 04:13:35;;;;;;;;;;;;;;;-149.78;100.00;50232.84;5100592;28;20099;-70
2022/06/25 04:16:01;;;;;;;;;;;;;;;-149.78;100.00;50234.81;5099343;28;19923;-70
2022/06/25 04:18:26;;;;;;;;;;;;;;;-149.78;100.00;50209.38;5101619;28;19955;-70
2022/06/25 04:20:51;;;;;;;;;;;;;;;-149.78;100.00;50178.09;5101837;28;19924;-70
2022/06/25 04:23:17;;;;;;;;;;;;;;;-149.78;100.00;50248.50;5101163;28;19967;-69
2022/06/25 04:25:43;;;;;;;;;;;;;;;-149.78;100.00;50260.22;5099429;28;20002;-70
2022/06/25 04:30:52;;;;;;;;;;;;;;;-149.78;100.00;50225.03;5099006;28;19931;-69
2022/06/25 04:33:18;;;;;;;;;;;;;;;-149.78;100.00;50217.19;5103135;28;20325;-69
2022/06/25 04:35:43;;;;;;;;;;;;;;;-149.78;100.00;50240.66;5101840;28;19927;-70
2022/06/25 04:38:09;;;;;;;;;;;;;;;-149.78;100.00;50215.25;5102668;28;20416;-69
2022/06/25 04:40:34;;;;;;;;;;;;;;;-149.78;100.00;50221.13;5099827;28;20027;-69
2022/06/25 04:43:00;;;;;;;;;;;;;;;-149.78;100.00;50244.59;5099235;28;19927;-69
2022/06/25 04:45:25;;;;;;;;;;;;;;;-149.78;100.00;50236.75;5098896;28;19970;-70
2022/06/25 04:47:51;;;;;;;;;;;;;;;-149.78;100.00;50256.31;5097934;28;20344;-70
2022/06/25 04:50:16;;;;;;;;;;;;;;;-149.78;100.00;50236.75;5099469;28;19924;-70
2022/06/25 04:52:42;;;;;;;;;;;;;;;-149.78;100.00;50228.94;5098081;28;19927;-70
2022/06/25 04:55:08;;;;;;;;;;;;;;;-149.78;100.00;50238.72;5099087;28;19927;-70
2022/06/25 04:57:33;;;;;;;;;;;;;;;-149.78;100.00;50240.66;5096940;28;19927;-70
2022/06/25 04:59:59;;;;;;;;;;;;;;;-149.78;100.00;50248.50;5100368;28;19954;-69
2022/06/25 05:02:25;;;;;;;;;;;;;;;-149.78;100.00;50260.22;5094426;28;19908;-70
2022/06/25 05:04:50;;;;;;;;;;;;;;;-149.78;100.00;50199.59;5098964;28;20393;-70
2022/06/25 05:07:16;;;;;;;;;;;;;;;-149.78;100.00;50250.44;5100362;28;19977;-70
2022/06/25 05:09:42;;;;;;;;;;;;;;;-149.78;100.00;50205.47;5098250;28;20320;-70
2022/06/25 05:12:08;;;;;;;;;;;;;;;-149.78;100.00;50246.53;5099461;28;19927;-70
2022/06/25 05:14:33;;;;;;;;;;;;;;;-149.78;100.00;50240.66;5098828;28;19920;-70
2022/06/25 05:16:59;;;;;;;;;;;;;;;-149.78;100.00;50219.16;5097642;28;19921;-70
2022/06/25 05:19:24;;;;;;;;;;;;;;;-149.78;100.00;50221.13;5100049;28;19927;-70
2022/06/25 05:21:49;;;;;;;;;;;;;;;-149.78;100.00;50228.94;5097888;28;19936;-70
2022/06/25 05:24:16;;;;;;;;;;;;;;;-149.78;100.00;50226.97;5096911;28;19981;-70
2022/06/25 05:26:41;;;;;;;;;;;;;;;-149.78;100.00;50248.50;5098028;28;19919;-69
2022/06/25 05:29:07;;;;;;;;;;;;;;;-149.78;100.00;50185.91;5097985;28;19926;-70
2022/06/25 05:31:32;;;;;;;;;;;;;;;-149.78;100.00;50189.81;5097408;28;20031;-69
2022/06/25 05:33:58;;;;;;;;;;;;;;;-149.78;100.00;50234.81;5099278;28;19950;-69
2022/06/25 05:36:23;;;;;;;;;;;;;;;-149.78;100.00;50260.22;5098981;28;19923;-70
2022/06/25 05:38:49;;;;;;;;;;;;;;;-149.78;100.00;50244.59;5096715;28;19943;-69
2022/06/25 05:41:14;;;;;;;;;;;;;;;-149.78;100.00;50226.97;5101432;28;19978;-69
2022/06/25 05:43:40;;;;;;;;;;;;;;;-149.78;100.00;50197.66;5103279;28;19939;-69
2022/06/25 05:46:06;;;;;;;;;;;;;;;-149.78;100.00;50189.81;5102983;28;20286;-70
2022/06/25 05:48:32;;;;;;;;;;;;;;;-149.78;100.00;50180.03;5102704;28;20003;-69
2022/06/25 05:50:58;;;;;;;;;;;;;;;-149.78;100.00;50189.81;5102363;28;19919;-70
2022/06/25 05:53:24;;;;;;;;;;;;;;;-149.78;100.00;50189.81;5101619;28;20283;-70
2022/06/25 05:55:50;;;;;;;;;;;;;;;-149.78;100.00;50225.03;5102145;28;19956;-70
2022/06/25 05:58:16;;;;;;;;;;;;;;;-149.78;100.00;50189.81;5099545;28;19922;-69
2022/06/25 06:00:41;;;;;;;;;;;;;;;-149.78;100.00;50225.03;5104392;28;19924;-70
2022/06/25 06:03:07;;;;;;;;;;;;;;;-149.78;100.00;50209.38;5102193;28;19967;-70
2022/06/25 06:05:33;;;;;;;;;;;;;;;-149.78;100.00;50213.28;5104745;28;19928;-70
2022/06/25 06:07:58;;;;;;;;;;;;;;;-149.78;100.00;50205.47;5105999;28;19923;-69
2022/06/25 06:10:24;;;;;;;;;;;;;;;-149.78;100.00;50174.19;5106176;28;19923;-69
2022/06/25 06:12:50;;;;;;;;;;;;;;;-149.78;100.00;50223.06;5105002;28;20382;-70
2022/06/25 06:15:15;;;;;;;;;;;;;;;-149.78;100.00;50176.13;5102260;28;19941;-69
2022/06/25 06:17:41;;;;;;;;;;;;;;;-149.78;100.00;50166.34;5102173;28;19931;-69
2022/06/25 06:20:08;;;;;;;;;;;;;;;-149.78;100.00;50217.19;5101461;28;20706;-70
2022/06/25 06:22:34;;;;;;;;;;;;;;;-149.78;100.00;50205.47;5101523;28;19928;-70
2022/06/25 06:25:00;;;;;;;;;;;;;;;-149.78;100.00;50172.22;5099694;28;19928;-70
2022/06/25 06:27:26;;;;;;;;;;;;;;;-149.78;100.00;50176.13;5102213;28;19926;-70
2022/06/25 06:29:51;;;;;;;;;;;;;;;-149.78;100.00;50174.19;5100033;28;19933;-69
2022/06/25 06:32:17;;;;;;;;;;;;;;;-149.78;100.00;50160.50;5101272;28;20649;-70
2022/06/25 06:34:43;;;;;;;;;;;;;;;-149.78;100.00;50137.03;5099749;28;19928;-70
2022/06/25 06:37:09;;;;;;;;;;;;;;;-149.78;100.00;50117.47;5102807;28;19916;-70
2022/06/25 06:39:34;;;;;;;;;;;;;;;-149.78;100.00;50135.06;5101520;28;20463;-70
2022/06/25 06:41:59;;;;;;;;;;;;;;;-149.78;100.00;50113.56;5100625;28;19920;-70
2022/06/25 06:44:25;;;;;;;;;;;;;;;-149.78;100.00;50125.28;5101920;28;19974;-70
2022/06/25 06:46:50;;;;;;;;;;;;;;;-149.78;100.00;50103.78;5100425;28;19928;-70
2022/06/25 06:49:16;;;;;;;;;;;;;;;-149.78;100.00;50127.25;5100082;28;19923;-70
2022/06/25 06:51:41;;;;;;;;;;;;;;;-149.78;100.00;50146.81;5100485;28;19980;-70
2022/06/25 06:54:07;;;;;;;;;;;;;;;-149.78;100.00;50064.66;5100702;28;19949;-70
2022/06/25 06:56:32;;;;;;;;;;;;;;;-149.78;91.92;50086.19;5099900;28;19931;-70
2022/06/25 06:58:58;;;;;;;;;;;;;;;-149.78;91.14;50078.34;5099793;28;20625;-70
2022/06/25 07:01:23;;;;;;;;;;;;;;;-149.78;80.95;50058.78;5102094;28;19919;-70
2022/06/25 07:03:48;;;;;;;;;;;;;;;-149.78;74.85;50047.06;5100667;28;19931;-70
2022/06/25 07:06:14;;;;;;;;;;;;;;;-149.78;71.08;50072.50;5103058;28;19930;-70
2022/06/25 07:08:39;;;;;;;;;;;;;;;-149.78;71.04;50054.88;5096404;28;19952;-70
2022/06/25 07:11:28;;;;;;;;;;;;;;;-149.78;79.80;50095.94;5104340;28;20051;-70
2022/06/25 07:13:51;;;;;;;;;;;;;;;-149.78;85.86;50095.94;5099619;28;19942;-70
2022/06/25 07:16:17;;;;;;;;;;;;;;;-149.78;80.54;50070.53;5098745;28;19931;-70
2022/06/25 07:18:42;;;;;;;;;;;;;;;-149.78;75.59;50099.88;5096125;28;19928;-69
2022/06/25 07:21:08;;;;;;;;;;;;;;;-149.78;78.71;50076.41;5100232;28;19970;-70
2022/06/25 07:23:34;;;;;;;;;;;;;;;-149.78;70.10;50086.19;5101789;28;19938;-70
2022/06/25 07:25:59;;;;;;;;;;;;;;;-149.78;70.42;50101.81;5099830;28;19920;-70
2022/06/25 07:28:25;;;;;;;;;;;;;;;-149.78;74.36;50070.53;5099543;28;20309;-70
2022/06/25 07:30:51;;;;;;;;;;;;;;;-149.78;67.36;50052.94;5099573;28;20249;-70
2022/06/25 07:33:17;;;;;;;;;;;;;;;-149.78;59.22;50002.09;5101307;28;19972;-70
2022/06/25 07:35:43;;;;;;;;;;;;;;;-149.78;55.21;50029.47;5098850;28;19950;-70
2022/06/25 07:38:08;;;;;;;;;;;;;;;-149.78;50.90;50002.09;5097375;28;19954;-70
2022/06/25 07:40:34;;;;;;;;;;;;;;;-149.78;50.36;50006.00;5100692;28;20363;-69
2022/06/25 07:43:00;;;;;;;;;;;;;;;-149.78;53.59;50004.03;5091360;28;19916;-69
2022/06/25 07:45:26;;;;;;;;;;;;;;;-149.78;52.36;50015.78;5097234;28;20382;-70
2022/06/25 07:47:52;;;;;;;;;;;;;;;-149.78;50.04;49976.66;5100200;28;19998;-70
2022/06/25 07:53:02;;;;;;;;;;;;;;;-149.78;43.84;49923.88;5095671;28;20006;-70
2022/06/25 07:55:27;;;;;;;;;;;;;;;-149.78;40.43;49908.22;5096423;28;19914;-70
2022/06/25 07:57:53;;;;;;;;;;;;;;;-149.78;40.42;49961.03;5102310;28;20389;-70
2022/06/25 08:00:18;;;;;;;;;;;;;;;-149.78;41.45;49970.78;5100108;28;19927;-70
2022/06/25 08:02:43;;;;;;;;;;;;;;;-149.78;40.19;49947.34;5100044;28;19956;-69
2022/06/25 08:05:09;;;;;;;;;;;;;;;-149.78;43.13;50002.09;5101376;28;19951;-70
2022/06/25 08:07:35;;;;;;;;;;;;;;;-149.78;45.61;50002.09;5099846;28;20328;-70
2022/06/25 08:10:01;;;;;;;;;;;;;;;-149.78;47.76;50056.84;5099011;28;20287;-70
2022/06/25 08:12:26;;;;;;;;;;;;;;;-149.78;51.73;50052.94;5098683;28;20370;-69
2022/06/25 08:14:52;;;;;;;;;;;;;;;-149.78;52.32;50045.09;5099444;28;19920;-70
2022/06/25 08:17:18;;;;;;;;;;;;;;;-149.78;48.06;49998.19;5098708;28;19950;-70
2022/06/25 08:19:44;;;;;;;;;;;;;;;-149.78;44.10;49974.72;5100239;28;20703;-69
2022/06/25 08:22:09;;;;;;;;;;;;;;;-149.78;41.65;49935.59;5097646;28;19920;-70
2022/06/25 08:24:35;;;;;;;;;;;;;;;-149.78;39.11;49959.06;5098943;28;20028;-69
2022/06/25 08:27:00;;;;;;;;;;;;;;;-149.78;38.44;49916.03;5099688;28;20016;-70
2022/06/25 08:29:26;;;;;;;;;;;;;;;-149.78;35.78;49888.66;5099157;28;20270;-68
2022/06/25 08:31:53;;;;;;;;;;;;;;;-149.78;35.26;49912.13;5100520;28;19923;-70
2022/06/25 08:34:19;;;;;;;;;;;;;;;-149.78;34.63;49865.19;5098710;28;19931;-69
2022/06/25 08:36:45;;;;;;;;;;;;;;;-149.78;34.00;49830.00;5097115;28;19916;-69
2022/06/25 08:39:10;;;;;;;;;;;;;;;-149.78;34.41;49927.78;5100146;28;19924;-69
2022/06/25 08:41:36;;;;;;;;;;;;;;;-149.78;34.88;49894.53;5100110;28;19927;-69
2022/06/25 08:44:02;;;;;;;;;;;;;;;-149.78;34.58;49896.50;5099120;28;19923;-69
2022/06/25 08:46:28;;;;;;;;;;;;;;;-149.78;35.47;49925.81;5099025;28;19957;-69
2022/06/25 08:48:55;;;;;;;;;;;;;;;-149.78;36.82;49947.34;5099848;28;19916;-70
2022/06/25 08:51:26;;;;;;;;;;;;;;;-149.78;37.38;49947.34;5097200;28;19923;-69
2022/06/25 08:53:52;;;;;;;;;;;;;;;-149.78;37.82;49964.94;5099493;28;19916;-69
2022/06/25 08:56:18;;;;;;;;;;;;;;;-149.78;38.06;49951.25;5097501;28;20385;-69
2022/06/25 08:58:44;;;;;;;;;;;;;;;-149.78;38.20;49994.25;5099621;28;20326;-69
2022/06/25 09:01:10;;;;;;;;;;;;;;;-149.78;37.73;50006.00;5101268;28;20057;-69
2022/06/25 09:03:35;;;;;;;;;;;;;;;-149.78;39.52;49990.34;5098344;28;21232;-69
2022/06/25 09:06:11;;;;;;;;;;;;;;;-149.78;38.87;49951.25;5102316;28;19924;-69
2022/06/25 09:08:37;;;;;;;;;;;;;;;-149.78;39.46;50013.81;5099118;28;19928;-69
2022/06/25 09:11:03;;;;;;;;;;;;;;;-149.78;39.96;49994.25;5099864;28;19924;-69
2022/06/25 09:13:28;;;;;;;;;;;;;;;-149.78;44.17;50029.47;5097335;28;20228;-69
2022/06/25 09:15:53;;;;;;;;;;;;;;;-149.78;43.91;50076.41;5102318;28;20011;-69
2022/06/25 09:18:19;;;;;;;;;;;;;;;-149.78;45.17;50033.38;5098642;28;19923;-69
2022/06/25 09:20:58;;;;;;;;;;;;;;;-149.78;48.40;50080.31;5102144;28;20703;-69
2022/06/25 09:23:24;;;;;;;;;;;;;;;-149.78;48.22;50035.34;5102226;28;19923;-69
2022/06/25 09:25:59;;;;;;;;;;;;;;;-149.78;48.94;50017.72;5102477;28;19923;-68
2022/06/25 09:28:34;;;;;;;;;;;;;;;-149.78;44.38;50006.00;5102664;28;20871;-68
2022/06/25 09:31:02;;;;;;;;;;;;;;;-149.78;39.70;49957.09;5102305;28;19924;-68
2022/06/25 09:33:28;;;;;;;;;;;;;;;-149.78;38.07;49947.34;5102062;28;19924;-68
2022/06/25 09:35:54;;;;;;;;;;;;;;;-149.78;35.80;49918.00;5101813;28;19924;-69
2022/06/25 09:38:20;;;;;;;;;;;;;;;-149.78;35.11;49974.72;5098343;28;20366;-69
2022/06/25 09:40:48;;;;;;;;;;;;;;;-149.78;34.45;49966.88;5101394;28;19928;-68
2022/06/25 09:43:15;;;;;;;;;;;;;;;-149.78;35.45;49978.63;5102070;28;19935;-69
2022/06/25 09:45:44;;;;;;;;;;;;;;;-149.78;36.93;49970.78;5104203;27;20382;-69
2022/06/25 09:48:17;;;;;;;;;;;;;;;-149.78;35.72;49939.50;5104092;28;19928;-68
2022/06/25 09:50:43;;;;;;;;;;;;;;;-149.78;35.40;49947.34;5100929;28;19927;-69
2022/06/25 09:53:08;;;;;;;;;;;;;;;-149.78;34.56;49927.78;5100633;28;19934;-68
2022/06/25 09:55:37;;;;;;;;;;;;;;;-149.78;35.35;49947.34;5103729;28;19930;-69
2022/06/25 09:58:03;;;;;;;;;;;;;;;-149.78;35.94;49970.78;5102671;28;19972;-69
2022/06/25 10:00:29;;;;;;;;;;;;;;;-149.78;36.91;49955.16;5103206;28;19919;-69
2022/06/25 10:02:56;;;;;;;;;;;;;;;-149.78;36.38;49923.88;5102762;28;20443;-69
2022/06/25 10:05:34;;;;;;;;;;;;;;;-149.78;35.73;49931.69;5100207;28;20077;-68
2022/06/25 10:08:05;;;;;;;;;;;;;;;-149.78;35.86;49962.97;5101187;28;20014;-69
2022/06/25 10:10:34;;;;;;;;;;;;;;;-149.78;35.03;49923.88;5101983;28;20737;-69
2022/06/25 10:13:00;;;;;;;;;;;;;;;-149.78;33.98;49908.22;5102242;28;19919;-69
2022/06/25 10:15:26;;;;;;;;;;;;;;;-149.78;34.68;49923.88;5102086;28;19920;-68
2022/06/25 10:17:51;;;;;;;;;;;;;;;-149.78;34.52;49939.50;5102289;28;20417;-68
2022/06/25 10:20:18;;;;;;;;;;;;;;;-149.78;35.02;49939.50;5100224;28;19975;-70
2022/06/25 10:22:45;;;;;;;;;;;;;;;-149.78;35.26;49964.94;5102933;28;20388;-70
2022/06/25 10:25:13;;;;;;;;;;;;;;;-149.78;36.20;49986.44;5098853;28;19962;-70
2022/06/25 10:27:43;;;;;;;;;;;;;;;-149.78;37.34;49974.72;5101093;28;19920;-70
2022/06/25 10:30:10;;;;;;;;;;;;;;;-149.78;35.68;49986.44;5099680;28;19924;-70
2022/06/25 10:32:46;;;;;;;;;;;;;;;-149.78;36.14;49961.03;5100980;28;19923;-70
2022/06/25 10:35:28;;;;;;;;;;;;;;;-149.78;36.48;49962.97;5099655;28;19922;-70
2022/06/25 10:38:10;;;;;;;;;;;;;;;-149.78;37.05;49986.44;5099894;28;19919;-70
2022/06/25 10:40:51;;;;;;;;;;;;;;;-149.78;37.49;49994.25;5100968;28;19931;-70
2022/06/25 10:43:35;;;;;;;;;;;;;;;-149.78;37.32;49961.03;5101326;28;20046;-70
2022/06/25 10:46:23;;;;;;;;;;;;;;;-149.78;35.79;49976.66;5100311;28;19924;-70
2022/06/25 10:48:49;;;;;;;;;;;;;;;-149.78;35.00;49986.44;5099633;28;19924;-70
2022/06/25 10:51:26;;;;;;;;;;;;;;;-149.78;34.91;49970.78;5100303;28;20291;-70
2022/06/25 10:53:51;;;;;;;;;;;;;;;-149.78;35.35;49949.28;5097852;28;19923;-69
2022/06/25 10:56:17;;;;;;;;;;;;;;;-149.78;35.08;49916.03;5099423;28;19924;-70
2022/06/25 10:58:44;;;;;;;;;;;;;;;-149.78;35.22;49919.94;5099824;28;19930;-69
2022/06/25 11:01:29;;;;;;;;;;;;;;;-149.78;35.67;50002.09;5102671;28;19930;-69
2022/06/25 11:03:56;;;;;;;;;;;;;;;-149.78;36.58;49990.34;5101415;28;19927;-70
2022/06/25 11:06:28;;;;;;;;;;;;;;;-149.78;37.49;50009.91;5100616;28;20409;-69
2022/06/25 11:08:54;;;;;;;;;;;;;;;-149.78;37.91;49988.41;5100549;28;19928;-70
2022/06/25 11:11:29;;;;;;;;;;;;;;;-149.78;37.25;49990.34;5102378;28;19959;-70
2022/06/25 11:13:56;;;;;;;;;;;;;;;-149.78;36.63;49962.97;5099534;28;19928;-69
2022/06/25 11:16:22;;;;;;;;;;;;;;;-149.78;36.69;50002.09;5101597;28;19982;-70
2022/06/25 11:18:53;;;;;;;;;;;;;;;-149.78;36.79;49966.88;5101920;28;20049;-70
2022/06/25 11:21:25;;;;;;;;;;;;;;;-149.78;36.19;49990.34;5100741;28;19930;-70
2022/06/25 11:23:51;;;;;;;;;;;;;;;-149.78;35.52;49974.72;5099617;28;19939;-70
2022/06/25 11:29:01;;;;;;;;;;;;;;;-149.78;36.04;50009.91;5100936;28;19955;-68
2022/06/25 11:31:26;;;;;;;;;;;;;;;-149.78;36.02;49970.78;5099250;28;21205;-70
2022/06/25 11:33:53;;;;;;;;;;;;;;;-149.78;36.17;49998.19;5101286;28;19932;-70
2022/06/25 11:36:19;;;;;;;;;;;;;;;-149.78;36.40;49966.88;5079589;28;20382;-70
2022/06/25 11:38:51;;;;;;;;;;;;;;;-149.78;36.84;49982.53;5102893;28;19949;-70
2022/06/25 11:41:20;;;;;;;;;;;;;;;-149.78;37.22;49959.06;5100216;28;19966;-70
2022/06/25 11:43:45;;;;;;;;;;;;;;;-149.78;36.53;49998.19;5096520;28;19927;-69
2022/06/25 11:46:13;;;;;;;;;;;;;;;-149.78;36.92;50006.00;5097908;28;19939;-70
2022/06/25 11:48:39;;;;;;;;;;;;;;;-149.78;37.29;49966.88;5098779;28;20386;-70
2022/06/25 11:51:04;;;;;;;;;;;;;;;-149.78;37.30;50007.94;5100579;28;19915;-69
2022/06/25 11:53:34;;;;;;;;;;;;;;;-149.78;38.63;49970.78;5097590;28;20606;-70
2022/06/25 11:56:00;;;;;;;;;;;;;;;-149.78;38.48;50021.63;5098991;28;19968;-70
2022/06/25 11:58:26;;;;;;;;;;;;;;;-149.78;40.38;49998.19;5087545;28;20454;-70
2022/06/25 12:00:59;;;;;;;;;;;;;;;-149.78;40.59;49982.53;5090391;28;19928;-70
2022/06/25 12:03:26;;;;;;;;;;;;;;;-149.78;40.30;50006.00;5097160;28;19933;-70
2022/06/25 12:05:55;;;;;;;;;;;;;;;-149.78;41.09;49990.34;5099764;28;19930;-70
2022/06/25 12:08:24;;;;;;;;;;;;;;;-149.78;40.01;49994.25;5096187;28;19998;-70
2022/06/25 12:10:51;;;;;;;;;;;;;;;-149.78;40.18;49986.44;5100314;28;20297;-70
2022/06/25 12:13:20;;;;;;;;;;;;;;;-149.78;41.29;50002.09;5099106;28;20795;-70
2022/06/25 12:15:46;;;;;;;;;;;;;;;-149.78;40.86;49994.25;5099442;28;20852;-70
2022/06/25 12:18:12;;;;;;;;;;;;;;;-149.78;41.10;49998.19;5101077;28;19931;-70
2022/06/25 12:20:56;;;;;;;;;;;;;;;-149.78;42.61;50025.56;5100121;28;19954;-70
2022/06/25 12:23:21;;;;;;;;;;;;;;;-149.78;43.96;50013.81;5099112;28;19924;-70
2022/06/25 12:25:47;;;;;;;;;;;;;;;-149.78;45.46;50025.56;5099143;28;20072;-70
2022/06/25 12:28:13;;;;;;;;;;;;;;;-149.78;57.62;50006.00;5097287;28;20257;-70
2022/06/25 12:30:38;;;;;;;;;;;;;;;-149.78;100.00;50058.78;5100096;28;19927;-70
2022/06/25 12:33:13;;;;;;;;;;;;;;;-149.78;100.00;50052.94;5099553;28;19920;-70
2022/06/25 12:35:40;;;;;;;;;;;;;;;-149.78;100.00;50084.22;5099551;28;19928;-70